Flight Track Log - Related Links

Times and Time Zones

All times are in EDT time to prevent confusion due to time zone crossing. See the UAL33 flight status page for this flight to view local times or setup timezone preferences in your user account.

Time Position Orientation Groundspeed Altitude Reporting Facility
EDT Latitude Longitude Course Direction KTS MPH feet Rate Location/Type
Fri 11:34:15 PM 41.9700 -87.8860 92° East 12 14  Level FlightAware ADS-B
Fri 11:44:26 PM 41.9700 -87.8840 90° East 18 21 88 Level FlightAware ADS-B
Fri 11:45:03 PM 41.9690 -87.8850 217° Southwest 18 21 485 Level FlightAware ADS-B
Fri 11:46:42 PM 41.9690 -87.9150 270° West 158 182 1,100 1,070 Climbing FlightAware ADS-B
Fri 11:47:12 PM 41.9690 -87.9450 270° West 172 198 2,300 1,929 Climbing FlightAware ADS-B
Fri 11:47:38 PM 41.9640 -87.9750 257° West 215 247 2,900 1,650 Climbing FlightAware ADS-B
Fri 11:47:52 PM 41.9550 -87.9920 235° Southwest 241 277 3,400 2,323 Climbing FlightAware ADS-B
Fri 11:48:09 PM 41.9420 -88.0110 227° Southwest 257 296 4,100 2,333 Climbing FlightAware ADS-B
Fri 11:48:28 PM 41.9280 -88.0330 229° Southwest 260 299 4,800 1,277 Climbing FlightAware ADS-B
Fri 11:48:56 PM 41.9040 -88.0670 227° Southwest 261 300 5,100 316 Climbing FlightAware ADS-B
Fri 11:49:25 PM 41.8840 -88.0870 217° Southwest 268 308 5,100 293 Level FlightAware ADS-B
Fri 11:49:37 PM 41.8650 -88.0960 199° South 276 318 5,300 1,286 Climbing FlightAware ADS-B
Fri 11:50:07 PM 41.8210 -88.0900 174° South 285 328 6,000 923 Climbing FlightAware ADS-B
Fri 11:50:29 PM 41.7940 -88.0850 172° South 278 320 6,100 188 Climbing FlightAware ADS-B
Fri 11:50:39 PM 41.7800 -88.0820 171° South 279 321 6,100 1,650 Level FlightAware ADS-B
Fri 11:51:09 PM 41.7430 -88.0740 171° South 266 306 7,200 3,000 Climbing FlightAware ADS-B
Fri 11:51:37 PM 41.7090 -88.0650 169° South 268 308 9,000 3,565 Climbing FlightAware ADS-B
Fri 11:52:18 PM 41.6600 -88.0440 162° South 277 319 11,300 3,209 Climbing FlightAware ADS-B
Fri 11:53:03 PM 41.6060 -88.0220 163° South 289 333 13,600 2,873 Climbing FlightAware ADS-B
Fri 11:53:29 PM 41.5690 -88.0150 172° South 294 338 14,700 2,328 Climbing FlightAware ADS-B
Fri 11:54:10 PM 41.5120 -88.0290 190° South 321 369 16,200 2,682 Climbing FlightAware ADS-B
Fri 11:54:54 PM 41.4460 -88.0480 192° South 335 386 18,500 2,357 Climbing FlightAware ADS-B
Fri 11:55:34 PM 41.3820 -88.0680 193° South 376 433 19,500 2,118 Climbing FlightAware ADS-B
Fri 11:56:19 PM 41.3010 -88.0900 192° South 391 450 21,500 2,571 Climbing FlightAware ADS-B
Fri 11:56:58 PM 41.2340 -88.1070 191° South 401 461 23,100 2,561 Climbing FlightAware ADS-B
Fri 11:57:41 PM 41.1560 -88.1280 191° South 404 465 25,000 2,372 Climbing FlightAware ADS-B
Fri 11:58:24 PM 41.0750 -88.1490 191° South 417 480 26,500 2,077 Climbing FlightAware ADS-B
Fri 11:58:59 PM 41.0070 -88.1680 192° South 424 488 27,700 2,024 Climbing FlightAware ADS-B
Fri 11:59:47 PM 40.9100 -88.1930 191° South 435 501 29,300 1,957 Climbing FlightAware ADS-B
Sat 12:00:31 AM 40.8250 -88.2160 192° South 445 512 30,700 1,976 Climbing FlightAware ADS-B
Sat 12:01:12 AM 40.7460 -88.2540 200° South 440 506 32,100 1,807 Climbing FlightAware ADS-B
Sat 12:01:54 AM 40.6730 -88.3060 208° Southwest 446 513 33,200 1,357 Climbing FlightAware ADS-B
Sat 12:02:36 AM 40.5910 -88.3640 208° Southwest 462 532 34,000 918 Climbing FlightAware ADS-B
Sat 12:03:19 AM 40.5080 -88.4220 208° Southwest 481 554 34,500 837 Climbing FlightAware ADS-B
Sat 12:04:02 AM 40.4230 -88.4820 208° Southwest 493 567 35,200 1,357 Climbing FlightAware ADS-B
Sat 12:04:43 AM 40.3390 -88.5420 209° Southwest 491 565 36,400 1,807 Climbing FlightAware ADS-B
Sat 12:05:25 AM 40.2570 -88.5990 208° Southwest 483 556 37,700 1,116 Climbing FlightAware ADS-B
Sat 12:06:09 AM 40.1710 -88.6590 208° Southwest 482 555 38,000 237 Climbing FlightAware ADS-B
Sat 12:06:41 AM 40.1060 -88.7040 208° Southwest 477 549 38,000  Level FlightAware ADS-B
Sat 12:07:24 AM 40.0240 -88.7610 208° Southwest 476 548 38,000  Level FlightAware ADS-B
Sat 12:08:04 AM 39.9480 -88.8140 208° Southwest 477 549 38,000 434 Level FlightAware ADS-B
Sat 12:08:47 AM 39.8690 -88.8680 208° Southwest 477 549 38,600 1,024 Climbing FlightAware ADS-B
Sat 12:09:26 AM 39.7950 -88.9100 204° Southwest 477 549 39,400 977 Climbing FlightAware ADS-B
Sat 12:10:13 AM 39.6860 -88.9690 203° Southwest 476 548 40,000 409 Climbing FlightAware ADS-B
Sat 12:10:54 AM 39.6040 -89.0130 202° Southwest 475 547 40,000  Level FlightAware ADS-B
Sat 12:11:31 AM 39.5290 -89.0530 202° Southwest 473 544 40,000  Level FlightAware ADS-B
Sat 12:12:11 AM 39.4500 -89.0950 202° Southwest 475 547 40,000  Level FlightAware ADS-B
Sat 12:12:50 AM 39.3690 -89.1380 202° Southwest 474 545 40,000  Level FlightAware ADS-B
Sat 12:13:28 AM 39.2910 -89.1790 202° Southwest 473 544 40,000  Level FlightAware ADS-B
Sat 12:14:08 AM 39.2100 -89.2220 202° Southwest 473 544 40,000  Level FlightAware ADS-B
Sat 12:14:50 AM 39.1250 -89.2670 202° Southwest 476 548 40,000  Level FlightAware ADS-B
Sat 12:15:34 AM 39.0360 -89.3140 202° Southwest 478 550 40,000  Level FlightAware ADS-B
Sat 12:16:15 AM 38.9500 -89.3590 202° Southwest 477 549 40,000  Level FlightAware ADS-B
Sat 12:16:56 AM 38.8700 -89.4010 202° Southwest 479 551 40,000  Level FlightAware ADS-B
Sat 12:17:37 AM 38.7860 -89.4450 202° Southwest 480 552 40,000  Level FlightAware ADS-B
Sat 12:18:21 AM 38.6930 -89.4930 202° Southwest 481 554 40,000  Level FlightAware ADS-B
Sat 12:19:05 AM 38.6050 -89.5390 202° Southwest 482 555 40,000  Level FlightAware ADS-B
Sat 12:19:47 AM 38.5180 -89.5840 202° Southwest 483 556 40,000  Level FlightAware ADS-B
Sat 12:20:27 AM 38.4300 -89.6290 202° Southwest 487 560 40,000  Level FlightAware ADS-B
Sat 12:21:08 AM 38.3470 -89.6720 202° Southwest 487 560 40,000  Level FlightAware ADS-B
Sat 12:21:53 AM 38.2510 -89.7210 202° Southwest 487 560 40,000  Level FlightAware ADS-B
Sat 12:22:29 AM 38.2030 -89.7460 202° Southwest 487 560 40,000  Level FlightAware ADS-B
Sat 12:23:16 AM 38.0830 -89.8070 202° Southwest 488 562 40,000  Level FlightAware ADS-B
Sat 12:23:55 AM 37.9950 -89.8520 202° Southwest 489 563 40,000  Level FlightAware ADS-B
Sat 12:24:39 AM 37.9030 -89.8990 202° Southwest 491 565 40,000  Level FlightAware ADS-B
Sat 12:25:24 AM 37.8170 -89.9410 201° Southwest 492 566 40,000  Level FlightAware ADS-B
Sat 12:26:00 AM 37.7520 -89.9730 201° Southwest 492 566 40,000  Level FlightAware ADS-B
Sat 12:26:48 AM 37.6420 -90.0300 202° Southwest 493 567 40,000  Level FlightAware ADS-B
Sat 12:27:25 AM 37.5750 -90.0620 201° Southwest 493 567 40,000  Level FlightAware ADS-B
Sat 12:28:13 AM 37.4880 -90.1040 201° Southwest 493 567 40,000  Level FlightAware ADS-B
Sat 12:28:50 AM 37.4210 -90.1370 201° Southwest 493 567 40,000  Level FlightAware ADS-B
Sat 12:29:26 AM 37.3560 -90.1680 201° Southwest 493 567 40,000  Level FlightAware ADS-B
Sat 12:30:18 AM 37.1800 -90.2620 203° Southwest 499 574 40,000  Level FlightAware ADS-B
Sat 12:30:55 AM 37.1020 -90.3000 201° Southwest 499 574 40,000  Level FlightAware ADS-B
Sat 12:31:38 AM 37.0200 -90.3410 202° Southwest 500 575 40,000  Level FlightAware ADS-B
Sat 12:32:16 AM 36.9470 -90.3770 202° Southwest 502 578 40,000  Level FlightAware ADS-B
Sat 12:32:57 AM 36.8640 -90.4180 202° Southwest 503 579 40,000  Level FlightAware ADS-B
Sat 12:33:37 AM 36.7520 -90.4730 201° Southwest 504 580 40,000  Level FlightAware ADS-B
Sat 12:34:17 AM 36.6630 -90.5170 202° Southwest 504 580 40,000  Level FlightAware ADS-B
Sat 12:34:55 AM 36.5820 -90.5560 201° Southwest 505 581 40,000  Level FlightAware ADS-B
Sat 12:35:33 AM 36.5010 -90.5960 202° Southwest 503 579 40,000  Level FlightAware ADS-B
Sat 12:36:36 AM 36.3700 -90.6600 201° Southwest 500 575 40,000  Level FlightAware ADS-B
Sat 12:37:30 AM 36.2480 -90.7190 201° Southwest 499 574 40,000  Level FlightAware ADS-B
Sat 12:38:11 AM 36.1580 -90.7630 202° Southwest 499 574 40,000  Level FlightAware ADS-B
Sat 12:38:55 AM 36.0630 -90.8080 201° Southwest 501 577 40,000  Level FlightAware ADS-B
Sat 12:39:37 AM 35.9810 -90.8480 202° Southwest 501 577 40,000  Level FlightAware ADS-B
Sat 12:40:41 AM 35.8530 -90.9090 201° Southwest 501 577 40,000  Level FlightAware ADS-B
Sat 12:41:17 AM 35.7870 -90.9400 201° Southwest 501 577 40,000  Level FlightAware ADS-B
Sat 12:41:57 AM 35.6710 -90.9960 201° Southwest 502 578 40,000  Level FlightAware ADS-B
Sat 12:42:38 AM 35.5920 -91.0340 201° Southwest 502 578 40,000  Level FlightAware ADS-B
Sat 12:43:18 AM 35.5050 -91.0750 201° Southwest 500 575 40,000  Level FlightAware ADS-B
Sat 12:43:55 AM 35.4370 -91.1070 201° Southwest 500 575 40,000  Level FlightAware ADS-B
Sat 12:44:44 AM 35.3470 -91.1490 201° Southwest 500 575 40,000  Level FlightAware ADS-B
Sat 12:45:32 AM 35.2170 -91.2110 201° Southwest 504 580 40,000  Level FlightAware ADS-B
Sat 12:46:20 AM 35.1280 -91.2530 201° Southwest 504 580 40,000  Level FlightAware ADS-B
Sat 12:46:57 AM 35.0600 -91.2850 201° Southwest 504 580 40,000  Level FlightAware ADS-B
Sat 12:47:33 AM 34.9930 -91.3160 201° Southwest 504 580 40,000  Level FlightAware ADS-B
Sat 12:48:21 AM 34.9040 -91.3580 201° Southwest 504 580 40,000  Level FlightAware ADS-B
Sat 12:48:58 AM 34.8360 -91.3900 201° Southwest 504 580 40,000  Level FlightAware ADS-B
Sat 12:49:35 AM 34.7670 -91.4220 201° Southwest 504 580 40,000  Level FlightAware ADS-B
Sat 12:50:57 AM 34.6160 -91.4930 201° Southwest 504 580 40,000  Level FlightAware ADS-B
Sat 12:51:34 AM 34.5470 -91.5240 200° South 504 580 40,000  Level FlightAware ADS-B
Sat 12:52:35 AM 34.4340 -91.5770 201° Southwest 504 580 40,000  Level FlightAware ADS-B
Sat 12:53:11 AM 34.3680 -91.6080 201° Southwest 504 580 40,000  Level FlightAware ADS-B
Sat 12:53:59 AM 34.2790 -91.6490 201° Southwest 504 580 40,000  Level FlightAware ADS-B
Sat 12:54:35 AM 34.2120 -91.6800 201° Southwest 504 580 40,000  Level FlightAware ADS-B
Sat 12:55:12 AM 33.9642 -91.7942 201° Southwest 485 558 40,000  Level Fort Worth Center
Sat 12:56:12 AM 33.8331 -91.8503 200° South 485 558 40,000  Level Fort Worth Center
Sat 12:57:12 AM 33.7042 -91.9108 201° Southwest 496 571 40,000  Level Fort Worth Center
Sat 12:58:12 AM 33.5733 -91.9689 200° South 507 583 40,000  Level Fort Worth Center
Sat 12:59:12 AM 33.4403 -92.0294 201° Southwest 512 589 40,000  Level Fort Worth Center
Sat 01:00:12 AM 33.3069 -92.0872 200° South 512 589 40,000  Level Fort Worth Center
Sat 01:06:20 AM 32.4647 -92.4624 200° South 513 590 40,000  Level FlightAware ADS-B
Sat 01:09:54 AM 32.0477 -92.7970 214° Southwest 517 595 40,000  Level FlightAware ADS-B
Sat 01:10:24 AM 31.9948 -92.8550 223° Southwest 517 595 40,000 -98 Level FlightAware ADS-B
Sat 01:10:55 AM 31.9420 -92.9128 223° Southwest 517 595 39,900 -871 Descending FlightAware ADS-B
Sat 01:11:26 AM 31.8864 -92.9733 223° Southwest 521 600 39,100 -1,574 Descending FlightAware ADS-B
Sat 01:11:56 AM 31.8333 -93.0312 223° Southwest 523 602 38,300 -1,770 Descending FlightAware ADS-B
Sat 01:12:27 AM 31.7789 -93.0906 223° Southwest 527 606 37,300 -1,839 Descending FlightAware ADS-B
Sat 01:12:58 AM 31.7230 -93.1513 223° Southwest 527 606 36,400 -1,452 Descending FlightAware ADS-B
Sat 01:13:29 AM 31.6688 -93.2102 223° Southwest 517 595 35,800 -2,032 Descending FlightAware ADS-B
Sat 01:14:00 AM 31.6138 -93.2700 223° Southwest 519 597 34,300 -2,852 Descending FlightAware ADS-B
Sat 01:14:30 AM 31.5605 -93.3270 222° Southwest 517 595 32,900 -2,300 Descending FlightAware ADS-B
Sat 01:15:00 AM 31.5080 -93.3835 223° Southwest 506 582 32,000 -1,800 Descending FlightAware ADS-B
Sat 01:15:30 AM 31.4571 -93.4383 223° Southwest 493 567 31,100 -2,100 Descending FlightAware ADS-B
Sat 01:16:00 AM 31.4067 -93.4926 223° Southwest 490 564 29,900 -2,164 Descending FlightAware ADS-B
Sat 01:16:31 AM 31.3568 -93.5463 223° Southwest 481 554 28,900 -2,164 Descending FlightAware ADS-B
Sat 01:17:01 AM 31.3073 -93.5995 223° Southwest 476 548 27,700 -2,300 Descending FlightAware ADS-B
Sat 01:17:31 AM 31.2589 -93.6512 222° Southwest 469 540 26,600 -2,100 Descending FlightAware ADS-B
Sat 01:18:01 AM 31.2109 -93.7024 222° Southwest 461 531 25,600 -1,967 Descending FlightAware ADS-B
Sat 01:18:32 AM 31.1636 -93.7532 223° Southwest 453 521 24,600 -1,770 Descending FlightAware ADS-B
Sat 01:19:02 AM 31.1165 -93.8034 222° Southwest 446 513 23,800 -1,377 Descending FlightAware ADS-B
Sat 01:19:33 AM 31.0709 -93.8517 222° Southwest 439 505 23,200 -1,125 Descending FlightAware ADS-B
Sat 01:20:06 AM 31.0212 -93.9047 222° Southwest 439 505 22,600 -1,015 Descending FlightAware ADS-B
Sat 01:20:38 AM 30.9728 -93.9561 222° Southwest 439 505 22,100 -952 Descending FlightAware ADS-B
Sat 01:21:09 AM 30.9265 -94.0052 222° Southwest 433 498 21,600 -1,125 Descending FlightAware ADS-B
Sat 01:21:42 AM 30.8778 -94.0567 222° Southwest 433 498 20,900 -1,787 Descending FlightAware ADS-B
Sat 01:22:43 AM 30.7900 -94.1493 222° Southwest 418 481 18,800 -2,014 Descending FlightAware ADS-B
Sat 01:24:05 AM 30.6756 -94.2701 222° Southwest 418 481 16,100 -1,982 Descending FlightAware ADS-B
Sat 01:24:35 AM 30.6346 -94.3131 222° Southwest 392 451 15,100 -1,900 Descending FlightAware ADS-B
Sat 01:25:05 AM 30.5945 -94.3550 222° Southwest 385 443 14,200 -1,869 Descending FlightAware ADS-B
Sat 01:25:36 AM 30.5544 -94.3973 222° Southwest 377 434 13,200 -1,967 Descending FlightAware ADS-B
Sat 01:26:06 AM 30.5157 -94.4379 222° Southwest 369 425 12,200 -1,350 Descending FlightAware ADS-B
Sat 01:27:36 AM 30.4067 -94.5515 222° Southwest 321 369 10,500 -917 Descending FlightAware ADS-B
Sat 01:28:30 AM 30.3510 -94.6098 222° Southwest 295 339 10,000 -571 Descending FlightAware ADS-B
Sat 01:29:00 AM 30.3203 -94.6418 222° Southwest 293 337 9,700 -800 Descending FlightAware ADS-B
Sat 01:29:15 AM 30.3046 -94.6579 222° Southwest 292 336 9,400 -1,174 Descending FlightAware ADS-B
Sat 01:29:46 AM 30.2744 -94.6895 222° Southwest 287 330 8,800 -1,135 Descending FlightAware ADS-B
Sat 01:29:52 AM 30.2688 -94.6957 224° Southwest 286 329 8,700 -1,091 Descending FlightAware ADS-B
Sat 01:29:57 AM 30.2640 -94.7014 226° Southwest 286 329 8,600 -1,333 Descending FlightAware ADS-B
Sat 01:30:10 AM 30.2528 -94.7164 230° Southwest 284 327 8,300 -1,500 Descending FlightAware ADS-B
Sat 01:30:53 AM 30.2191 -94.7678 233° Southwest 279 321 7,200 -1,340 Descending FlightAware ADS-B
Sat 01:31:53 AM 30.1731 -94.8379 233° Southwest 272 313 6,000 -1,184 Descending FlightAware ADS-B
Sat 01:32:09 AM 30.1609 -94.8566 233° Southwest 273 314 5,700 -1,161 Descending FlightAware ADS-B
Sat 01:32:24 AM 30.1492 -94.8744 233° Southwest 273 314 5,400 -1,200 Descending FlightAware ADS-B
Sat 01:32:59 AM 30.1226 -94.9151 233° Southwest 268 308 4,700 -1,059 Descending FlightAware ADS-B
Sat 01:33:15 AM 30.1111 -94.9326 233° Southwest 267 307 4,500 -913 Descending FlightAware ADS-B
Sat 01:33:45 AM 30.0885 -94.9669 233° Southwest 263 303 4,000 -658 Descending FlightAware ADS-B
Sat 01:34:28 AM 30.0588 -95.0121 233° Southwest 233 268 3,700 -429 Descending FlightAware ADS-B
Sat 01:34:55 AM 30.0417 -95.0382 233° Southwest 221 254 3,500 -441 Descending FlightAware ADS-B
Sat 01:35:36 AM 30.0164 -95.0767 233° Southwest 213 245 3,200 -429 Descending FlightAware ADS-B
Sat 01:35:51 AM 30.0076 -95.0900 233° Southwest 204 235 3,100 -340 Descending FlightAware ADS-B
Sat 01:36:29 AM 29.9876 -95.1203 233° Southwest 185 213 2,900 -245 Descending FlightAware ADS-B
Sat 01:36:40 AM 29.9828 -95.1304 246° West 187 215 2,900 -353 Level FlightAware ADS-B
Sat 01:36:46 AM 29.9808 -95.1362 248° West 188 216 2,800 -1,000 Descending FlightAware ADS-B
Sat 01:36:58 AM 29.9782 -95.1478 259° West 192 221 2,600 -947 Descending FlightAware ADS-B
Sat 01:37:05 AM 29.9777 -95.1545 266° West 194 223 2,500 -923 Descending FlightAware ADS-B
Sat 01:37:11 AM 29.9776 -95.1604 269° West 197 227 2,400 -1,000 Descending FlightAware ADS-B
Sat 01:37:23 AM 29.9777 -95.1734 271° West 194 223 2,200 -1,071 Descending FlightAware ADS-B
Sat 01:37:39 AM 29.9776 -95.1899 270° West 188 216 1,900 -1,091 Descending FlightAware ADS-B
Sat 01:37:56 AM 29.9776 -95.2064 270° West 176 203 1,600 -1,000 Descending FlightAware ADS-B
Sat 01:38:09 AM 29.9776 -95.2172 270° West 160 184 1,400 -828 Descending FlightAware ADS-B
Sat 01:38:25 AM 29.9776 -95.2304 270° West 147 169 1,200 -774 Descending FlightAware ADS-B
Sat 01:38:40 AM 29.9776 -95.2420 270° West 144 166 1,000 -800 Descending FlightAware ADS-B
Sat 01:38:55 AM 29.9775 -95.2536 269° West 144 166 800 -720 Descending FlightAware ADS-B
Sat 01:39:05 AM 29.9775 -95.2614 270° West 144 166 700 -706 Descending FlightAware ADS-B
Sat 01:39:12 AM 29.9775 -95.2665 270° West 145 167 600 -571 Descending FlightAware ADS-B
Sat 01:39:26 AM 29.9776 -95.2770 271° West 147 169 500 -621 Descending FlightAware ADS-B
Sat 01:39:41 AM 29.9776 -95.2887 270° West 147 169 300 -800 Descending FlightAware ADS-B
Sat 01:39:56 AM 29.9776 -95.3009 270° West 146 168 100 -800 Descending FlightAware ADS-B

Login

Don't have an account? Register now (free) for customized features, flight alerts, and more!